sensor_id;sensor_type;location;lat;lon;timestamp;temperature;humidity
11079;DHT22;5592;49.234;7.268;2023-07-24T00:02:24;14.80;99.90
11079;DHT22;5592;49.234;7.268;2023-07-24T00:04:50;14.80;99.90
11079;DHT22;5592;49.234;7.268;2023-07-24T00:07:15;14.80;99.90
11079;DHT22;5592;49.234;7.268;2023-07-24T00:09:41;14.80;99.90
11079;DHT22;5592;49.234;7.268;2023-07-24T00:12:07;14.80;99.90
11079;DHT22;5592;49.234;7.268;2023-07-24T00:14:32;14.80;99.90
11079;DHT22;5592;49.234;7.268;2023-07-24T00:16:58;14.80;99.90
11079;DHT22;5592;49.234;7.268;2023-07-24T00:19:23;14.80;99.90
11079;DHT22;5592;49.234;7.268;2023-07-24T00:21:49;14.80;99.90
11079;DHT22;5592;49.234;7.268;2023-07-24T00:24:14;14.80;99.90
11079;DHT22;5592;49.234;7.268;2023-07-24T00:26:40;14.80;99.90
11079;DHT22;5592;49.234;7.268;2023-07-24T00:29:06;14.80;99.90
11079;DHT22;5592;49.234;7.268;2023-07-24T00:31:31;14.70;99.90
11079;DHT22;5592;49.234;7.268;2023-07-24T00:33:57;14.60;99.90
11079;DHT22;5592;49.234;7.268;2023-07-24T00:36:26;14.50;99.90
11079;DHT22;5592;49.234;7.268;2023-07-24T00:38:51;14.50;99.90
11079;DHT22;5592;49.234;7.268;2023-07-24T00:41:17;14.40;99.90
11079;DHT22;5592;49.234;7.268;2023-07-24T00:43:42;14.40;99.90
11079;DHT22;5592;49.234;7.268;2023-07-24T00:46:10;14.40;99.90
11079;DHT22;5592;49.234;7.268;2023-07-24T00:48:37;14.40;99.90
11079;DHT22;5592;49.234;7.268;2023-07-24T00:51:02;14.50;99.90
11079;DHT22;5592;49.234;7.268;2023-07-24T00:53:28;14.50;99.90
11079;DHT22;5592;49.234;7.268;2023-07-24T00:55:54;14.60;99.90
11079;DHT22;5592;49.234;7.268;2023-07-24T00:58:19;14.70;99.90
11079;DHT22;5592;49.234;7.268;2023-07-24T01:00:46;14.90;99.90
11079;DHT22;5592;49.234;7.268;2023-07-24T01:03:12;14.90;99.90
11079;DHT22;5592;49.234;7.268;2023-07-24T01:05:38;15.00;99.90
11079;DHT22;5592;49.234;7.268;2023-07-24T01:08:04;15.00;99.90
11079;DHT22;5592;49.234;7.268;2023-07-24T01:10:30;15.00;99.90
11079;DHT22;5592;49.234;7.268;2023-07-24T01:13:14;14.90;99.90
11079;DHT22;5592;49.234;7.268;2023-07-24T01:16:13;14.90;99.90
11079;DHT22;5592;49.234;7.268;2023-07-24T01:18:39;14.80;99.90
11079;DHT22;5592;49.234;7.268;2023-07-24T01:21:08;14.70;99.90
11079;DHT22;5592;49.234;7.268;2023-07-24T01:23:59;14.60;99.90
11079;DHT22;5592;49.234;7.268;2023-07-24T01:26:28;14.50;99.90
11079;DHT22;5592;49.234;7.268;2023-07-24T01:28:54;14.40;99.90
11079;DHT22;5592;49.234;7.268;2023-07-24T01:31:19;14.30;99.90
11079;DHT22;5592;49.234;7.268;2023-07-24T01:33:45;14.30;99.90
11079;DHT22;5592;49.234;7.268;2023-07-24T01:36:12;14.20;99.90
11079;DHT22;5592;49.234;7.268;2023-07-24T01:38:38;14.30;99.90
11079;DHT22;5592;49.234;7.268;2023-07-24T01:41:04;14.30;99.90
11079;DHT22;5592;49.234;7.268;2023-07-24T01:43:31;14.20;99.90
11079;DHT22;5592;49.234;7.268;2023-07-24T01:45:58;14.20;99.90
11079;DHT22;5592;49.234;7.268;2023-07-24T01:48:23;14.10;99.90
11079;DHT22;5592;49.234;7.268;2023-07-24T01:50:49;14.10;99.90
11079;DHT22;5592;49.234;7.268;2023-07-24T01:53:15;14.10;99.90
11079;DHT22;5592;49.234;7.268;2023-07-24T01:55:41;14.10;99.90
11079;DHT22;5592;49.234;7.268;2023-07-24T01:58:06;14.00;99.90
11079;DHT22;5592;49.234;7.268;2023-07-24T02:00:32;13.90;99.90
11079;DHT22;5592;49.234;7.268;2023-07-24T02:02:57;13.90;99.90
11079;DHT22;5592;49.234;7.268;2023-07-24T02:05:23;14.00;99.90
11079;DHT22;5592;49.234;7.268;2023-07-24T02:07:48;14.10;99.90
11079;DHT22;5592;49.234;7.268;2023-07-24T02:10:14;14.20;99.90
11079;DHT22;5592;49.234;7.268;2023-07-24T02:12:40;14.20;99.90
11079;DHT22;5592;49.234;7.268;2023-07-24T02:15:06;14.30;99.90
11079;DHT22;5592;49.234;7.268;2023-07-24T02:17:32;14.30;99.90
11079;DHT22;5592;49.234;7.268;2023-07-24T02:19:57;14.40;99.90
11079;DHT22;5592;49.234;7.268;2023-07-24T02:22:24;14.50;99.90
11079;DHT22;5592;49.234;7.268;2023-07-24T02:24:49;14.50;99.90
11079;DHT22;5592;49.234;7.268;2023-07-24T02:27:29;14.60;99.90
11079;DHT22;5592;49.234;7.268;2023-07-24T02:29:57;14.60;99.90
11079;DHT22;5592;49.234;7.268;2023-07-24T02:32:23;14.60;99.90
11079;DHT22;5592;49.234;7.268;2023-07-24T02:34:50;14.70;99.90
11079;DHT22;5592;49.234;7.268;2023-07-24T02:37:15;14.70;99.90
11079;DHT22;5592;49.234;7.268;2023-07-24T02:39:41;14.70;99.90
11079;DHT22;5592;49.234;7.268;2023-07-24T02:42:06;14.70;99.90
11079;DHT22;5592;49.234;7.268;2023-07-24T02:44:34;14.70;99.90
11079;DHT22;5592;49.234;7.268;2023-07-24T02:46:59;14.80;99.90
11079;DHT22;5592;49.234;7.268;2023-07-24T02:49:25;14.80;99.90
11079;DHT22;5592;49.234;7.268;2023-07-24T02:51:50;14.80;99.90
11079;DHT22;5592;49.234;7.268;2023-07-24T02:54:16;14.80;99.90
11079;DHT22;5592;49.234;7.268;2023-07-24T02:56:41;14.80;99.90
11079;DHT22;5592;49.234;7.268;2023-07-24T02:59:07;14.80;99.90
11079;DHT22;5592;49.234;7.268;2023-07-24T03:01:32;14.80;99.90
11079;DHT22;5592;49.234;7.268;2023-07-24T03:03:58;14.90;99.90
11079;DHT22;5592;49.234;7.268;2023-07-24T03:06:23;14.80;99.90
11079;DHT22;5592;49.234;7.268;2023-07-24T03:08:49;14.80;99.90
11079;DHT22;5592;49.234;7.268;2023-07-24T03:11:15;14.80;99.90
11079;DHT22;5592;49.234;7.268;2023-07-24T03:13:40;14.70;99.90
11079;DHT22;5592;49.234;7.268;2023-07-24T03:16:07;14.70;99.90
11079;DHT22;5592;49.234;7.268;2023-07-24T03:18:33;14.60;99.90
11079;DHT22;5592;49.234;7.268;2023-07-24T03:20:58;14.50;99.90
11079;DHT22;5592;49.234;7.268;2023-07-24T03:23:24;14.40;99.90
11079;DHT22;5592;49.234;7.268;2023-07-24T03:25:50;14.30;99.90
11079;DHT22;5592;49.234;7.268;2023-07-24T03:28:15;14.30;99.90
11079;DHT22;5592;49.234;7.268;2023-07-24T03:30:41;14.20;99.90
11079;DHT22;5592;49.234;7.268;2023-07-24T03:33:06;14.10;99.90
11079;DHT22;5592;49.234;7.268;2023-07-24T03:35:32;14.00;99.90
11079;DHT22;5592;49.234;7.268;2023-07-24T03:37:58;14.00;99.90
11079;DHT22;5592;49.234;7.268;2023-07-24T03:40:23;13.90;99.90
11079;DHT22;5592;49.234;7.268;2023-07-24T03:42:49;14.00;99.90
11079;DHT22;5592;49.234;7.268;2023-07-24T03:45:14;14.00;99.90
11079;DHT22;5592;49.234;7.268;2023-07-24T03:47:40;14.10;99.90
11079;DHT22;5592;49.234;7.268;2023-07-24T03:50:06;14.10;99.90
11079;DHT22;5592;49.234;7.268;2023-07-24T03:52:31;14.20;99.90
11079;DHT22;5592;49.234;7.268;2023-07-24T03:54:57;14.20;99.90
11079;DHT22;5592;49.234;7.268;2023-07-24T03:57:23;14.20;99.90
11079;DHT22;5592;49.234;7.268;2023-07-24T03:59:48;14.30;99.90
11079;DHT22;5592;49.234;7.268;2023-07-24T04:02:14;14.40;99.90
11079;DHT22;5592;49.234;7.268;2023-07-24T04:04:39;14.50;99.90
11079;DHT22;5592;49.234;7.268;2023-07-24T04:07:05;14.50;99.90
11079;DHT22;5592;49.234;7.268;2023-07-24T04:09:31;14.50;99.90
11079;DHT22;5592;49.234;7.268;2023-07-24T04:11:56;14.50;99.90
11079;DHT22;5592;49.234;7.268;2023-07-24T04:14:22;14.50;99.90
11079;DHT22;5592;49.234;7.268;2023-07-24T04:16:48;14.50;99.90
11079;DHT22;5592;49.234;7.268;2023-07-24T04:19:13;14.50;99.90
11079;DHT22;5592;49.234;7.268;2023-07-24T04:21:39;14.50;99.90
11079;DHT22;5592;49.234;7.268;2023-07-24T04:24:05;14.50;99.90
11079;DHT22;5592;49.234;7.268;2023-07-24T04:26:30;14.50;99.90
11079;DHT22;5592;49.234;7.268;2023-07-24T04:28:56;14.60;99.90
11079;DHT22;5592;49.234;7.268;2023-07-24T04:31:21;14.60;99.90
11079;DHT22;5592;49.234;7.268;2023-07-24T04:33:50;14.60;99.90
11079;DHT22;5592;49.234;7.268;2023-07-24T04:36:16;14.70;99.90
11079;DHT22;5592;49.234;7.268;2023-07-24T04:38:41;14.70;99.90
11079;DHT22;5592;49.234;7.268;2023-07-24T04:41:07;14.70;99.90
11079;DHT22;5592;49.234;7.268;2023-07-24T04:43:32;14.90;99.90
11079;DHT22;5592;49.234;7.268;2023-07-24T04:45:58;14.90;99.90
11079;DHT22;5592;49.234;7.268;2023-07-24T04:48:23;15.00;99.90
11079;DHT22;5592;49.234;7.268;2023-07-24T04:50:55;15.10;99.90
11079;DHT22;5592;49.234;7.268;2023-07-24T04:53:21;15.10;99.90
11079;DHT22;5592;49.234;7.268;2023-07-24T04:55:49;15.20;99.90
11079;DHT22;5592;49.234;7.268;2023-07-24T04:58:14;15.30;99.90
11079;DHT22;5592;49.234;7.268;2023-07-24T05:00:40;15.40;99.90
11079;DHT22;5592;49.234;7.268;2023-07-24T05:03:05;15.50;99.90
11079;DHT22;5592;49.234;7.268;2023-07-24T05:05:34;15.60;99.90
11079;DHT22;5592;49.234;7.268;2023-07-24T05:07:59;15.70;99.90
11079;DHT22;5592;49.234;7.268;2023-07-24T05:10:25;15.90;99.90
11079;DHT22;5592;49.234;7.268;2023-07-24T05:12:50;15.90;99.90
11079;DHT22;5592;49.234;7.268;2023-07-24T05:15:16;16.10;99.90
11079;DHT22;5592;49.234;7.268;2023-07-24T05:17:43;16.20;99.90
11079;DHT22;5592;49.234;7.268;2023-07-24T05:20:09;16.30;99.90
11079;DHT22;5592;49.234;7.268;2023-07-24T05:22:35;16.30;99.90
11079;DHT22;5592;49.234;7.268;2023-07-24T05:25:00;16.40;99.90
11079;DHT22;5592;49.234;7.268;2023-07-24T05:27:26;16.50;99.90
11079;DHT22;5592;49.234;7.268;2023-07-24T05:29:51;16.60;99.90
11079;DHT22;5592;49.234;7.268;2023-07-24T05:32:17;16.70;99.90
11079;DHT22;5592;49.234;7.268;2023-07-24T05:34:43;16.80;99.90
11079;DHT22;5592;49.234;7.268;2023-07-24T05:37:08;16.90;99.90
11079;DHT22;5592;49.234;7.268;2023-07-24T05:39:34;17.10;99.90
11079;DHT22;5592;49.234;7.268;2023-07-24T05:41:59;17.20;99.90
11079;DHT22;5592;49.234;7.268;2023-07-24T05:44:25;17.40;99.90
11079;DHT22;5592;49.234;7.268;2023-07-24T05:46:50;17.70;99.90
11079;DHT22;5592;49.234;7.268;2023-07-24T05:49:16;18.20;99.90
11079;DHT22;5592;49.234;7.268;2023-07-24T05:51:44;18.70;99.90
11079;DHT22;5592;49.234;7.268;2023-07-24T05:54:10;19.10;99.90
11079;DHT22;5592;49.234;7.268;2023-07-24T05:56:35;19.50;99.90
11079;DHT22;5592;49.234;7.268;2023-07-24T05:59:01;20.30;99.90
11079;DHT22;5592;49.234;7.268;2023-07-24T06:01:27;21.10;99.90
11079;DHT22;5592;49.234;7.268;2023-07-24T06:03:52;21.60;99.90
11079;DHT22;5592;49.234;7.268;2023-07-24T06:06:18;22.40;99.90
11079;DHT22;5592;49.234;7.268;2023-07-24T06:08:44;22.80;99.90
11079;DHT22;5592;49.234;7.268;2023-07-24T06:11:10;22.80;99.90
11079;DHT22;5592;49.234;7.268;2023-07-24T06:13:36;22.50;99.90
11079;DHT22;5592;49.234;7.268;2023-07-24T06:16:01;22.30;99.90
11079;DHT22;5592;49.234;7.268;2023-07-24T06:18:27;22.00;99.90
11079;DHT22;5592;49.234;7.268;2023-07-24T06:20:53;21.90;99.90
11079;DHT22;5592;49.234;7.268;2023-07-24T06:23:19;21.70;99.90
11079;DHT22;5592;49.234;7.268;2023-07-24T06:25:45;21.60;99.90
11079;DHT22;5592;49.234;7.268;2023-07-24T06:28:11;21.40;99.90
11079;DHT22;5592;49.234;7.268;2023-07-24T06:30:38;21.20;99.90
11079;DHT22;5592;49.234;7.268;2023-07-24T06:33:04;20.90;99.90
11079;DHT22;5592;49.234;7.268;2023-07-24T06:35:30;20.70;99.90
11079;DHT22;5592;49.234;7.268;2023-07-24T06:37:55;20.70;99.90
11079;DHT22;5592;49.234;7.268;2023-07-24T06:40:27;20.90;99.90
11079;DHT22;5592;49.234;7.268;2023-07-24T06:42:54;21.40;99.90
11079;DHT22;5592;49.234;7.268;2023-07-24T06:45:23;22.30;99.90
11079;DHT22;5592;49.234;7.268;2023-07-24T06:47:50;23.00;99.90
11079;DHT22;5592;49.234;7.268;2023-07-24T06:50:19;23.70;99.90
11079;DHT22;5592;49.234;7.268;2023-07-24T06:52:48;24.40;99.90
11079;DHT22;5592;49.234;7.268;2023-07-24T06:55:16;24.90;99.90
11079;DHT22;5592;49.234;7.268;2023-07-24T06:57:44;24.70;99.90
11079;DHT22;5592;49.234;7.268;2023-07-24T07:00:11;24.80;99.90
11079;DHT22;5592;49.234;7.268;2023-07-24T07:02:38;24.70;99.90
11079;DHT22;5592;49.234;7.268;2023-07-24T07:05:04;24.50;99.90
11079;DHT22;5592;49.234;7.268;2023-07-24T07:07:32;24.20;99.90
11079;DHT22;5592;49.234;7.268;2023-07-24T07:09:58;23.20;99.90
11079;DHT22;5592;49.234;7.268;2023-07-24T07:12:23;22.70;99.90
11079;DHT22;5592;49.234;7.268;2023-07-24T07:14:49;22.40;99.90
11079;DHT22;5592;49.234;7.268;2023-07-24T07:17:14;22.20;99.90
11079;DHT22;5592;49.234;7.268;2023-07-24T07:19:40;22.20;99.90
11079;DHT22;5592;49.234;7.268;2023-07-24T07:22:05;22.20;99.90
11079;DHT22;5592;49.234;7.268;2023-07-24T07:24:31;22.20;99.90
11079;DHT22;5592;49.234;7.268;2023-07-24T07:26:57;22.30;99.90
11079;DHT22;5592;49.234;7.268;2023-07-24T07:29:22;22.50;99.90
11079;DHT22;5592;49.234;7.268;2023-07-24T07:31:48;22.80;99.90
11079;DHT22;5592;49.234;7.268;2023-07-24T07:34:13;23.20;99.90
11079;DHT22;5592;49.234;7.268;2023-07-24T07:36:39;23.60;99.90
11079;DHT22;5592;49.234;7.268;2023-07-24T07:39:04;24.30;99.90
11079;DHT22;5592;49.234;7.268;2023-07-24T07:41:30;24.70;99.90
11079;DHT22;5592;49.234;7.268;2023-07-24T07:43:56;25.10;99.90
11079;DHT22;5592;49.234;7.268;2023-07-24T07:46:21;25.60;99.90
11079;DHT22;5592;49.234;7.268;2023-07-24T07:48:47;26.40;99.90
11079;DHT22;5592;49.234;7.268;2023-07-24T07:51:14;27.10;99.90
11079;DHT22;5592;49.234;7.268;2023-07-24T07:53:40;26.90;99.90
11079;DHT22;5592;49.234;7.268;2023-07-24T07:56:05;26.70;99.90
11079;DHT22;5592;49.234;7.268;2023-07-24T07:58:31;26.50;99.90
11079;DHT22;5592;49.234;7.268;2023-07-24T08:00:57;26.30;99.90
11079;DHT22;5592;49.234;7.268;2023-07-24T08:03:22;26.00;99.90
11079;DHT22;5592;49.234;7.268;2023-07-24T08:05:48;26.00;99.90
11079;DHT22;5592;49.234;7.268;2023-07-24T08:08:14;26.00;99.90
11079;DHT22;5592;49.234;7.268;2023-07-24T08:10:39;26.30;99.90
11079;DHT22;5592;49.234;7.268;2023-07-24T08:13:05;26.60;99.90
11079;DHT22;5592;49.234;7.268;2023-07-24T08:15:36;26.70;99.90
11079;DHT22;5592;49.234;7.268;2023-07-24T08:18:03;26.20;99.90
11079;DHT22;5592;49.234;7.268;2023-07-24T08:20:29;25.70;99.90
11079;DHT22;5592;49.234;7.268;2023-07-24T08:22:54;25.00;99.90
11079;DHT22;5592;49.234;7.268;2023-07-24T08:25:20;24.60;99.90
11079;DHT22;5592;49.234;7.268;2023-07-24T08:27:45;24.10;99.90
11079;DHT22;5592;49.234;7.268;2023-07-24T08:30:11;24.10;99.90
11079;DHT22;5592;49.234;7.268;2023-07-24T08:32:37;24.20;99.90
11079;DHT22;5592;49.234;7.268;2023-07-24T08:35:06;24.20;99.90
11079;DHT22;5592;49.234;7.268;2023-07-24T08:37:32;24.20;99.90
11079;DHT22;5592;49.234;7.268;2023-07-24T08:39:57;24.40;99.90
11079;DHT22;5592;49.234;7.268;2023-07-24T08:42:23;24.50;99.90
11079;DHT22;5592;49.234;7.268;2023-07-24T08:44:49;24.20;99.90
11079;DHT22;5592;49.234;7.268;2023-07-24T08:47:15;23.90;99.90
11079;DHT22;5592;49.234;7.268;2023-07-24T08:49:42;23.90;99.90
11079;DHT22;5592;49.234;7.268;2023-07-24T08:52:08;24.00;99.90
11079;DHT22;5592;49.234;7.268;2023-07-24T08:54:36;23.90;99.90
11079;DHT22;5592;49.234;7.268;2023-07-24T08:57:06;23.90;99.90
11079;DHT22;5592;49.234;7.268;2023-07-24T08:59:31;24.30;99.90
11079;DHT22;5592;49.234;7.268;2023-07-24T09:01:57;25.00;99.90
11079;DHT22;5592;49.234;7.268;2023-07-24T09:04:24;25.60;99.90
11079;DHT22;5592;49.234;7.268;2023-07-24T09:06:50;26.00;99.90
11079;DHT22;5592;49.234;7.268;2023-07-24T09:09:16;25.70;99.90
11079;DHT22;5592;49.234;7.268;2023-07-24T09:11:46;25.80;99.90
11079;DHT22;5592;49.234;7.268;2023-07-24T09:14:20;25.70;99.90
11079;DHT22;5592;49.234;7.268;2023-07-24T09:16:46;25.80;99.90
11079;DHT22;5592;49.234;7.268;2023-07-24T09:19:19;26.00;99.90
11079;DHT22;5592;49.234;7.268;2023-07-24T09:21:44;26.00;99.90
11079;DHT22;5592;49.234;7.268;2023-07-24T09:24:14;26.10;99.90
11079;DHT22;5592;49.234;7.268;2023-07-24T09:26:53;26.50;99.90
11079;DHT22;5592;49.234;7.268;2023-07-24T09:29:19;27.00;99.90
11079;DHT22;5592;49.234;7.268;2023-07-24T09:31:45;27.00;99.90
11079;DHT22;5592;49.234;7.268;2023-07-24T09:34:17;26.80;99.90
11079;DHT22;5592;49.234;7.268;2023-07-24T09:36:43;26.60;99.90
11079;DHT22;5592;49.234;7.268;2023-07-24T09:39:10;26.40;99.90
11079;DHT22;5592;49.234;7.268;2023-07-24T09:41:37;25.60;99.90
11079;DHT22;5592;49.234;7.268;2023-07-24T09:44:03;24.90;99.90
11079;DHT22;5592;49.234;7.268;2023-07-24T09:46:29;24.80;99.90
11079;DHT22;5592;49.234;7.268;2023-07-24T09:48:56;24.60;99.90
11079;DHT22;5592;49.234;7.268;2023-07-24T09:51:22;24.40;99.90
11079;DHT22;5592;49.234;7.268;2023-07-24T09:54:01;24.60;99.90
11079;DHT22;5592;49.234;7.268;2023-07-24T09:56:30;24.50;99.90
11079;DHT22;5592;49.234;7.268;2023-07-24T09:58:59;24.20;99.90
11079;DHT22;5592;49.234;7.268;2023-07-24T10:01:26;24.20;99.90
11079;DHT22;5592;49.234;7.268;2023-07-24T10:03:53;24.10;99.90
11079;DHT22;5592;49.234;7.268;2023-07-24T10:06:19;23.80;99.90
11079;DHT22;5592;49.234;7.268;2023-07-24T10:08:46;23.70;99.90
11079;DHT22;5592;49.234;7.268;2023-07-24T10:11:13;23.70;99.90
11079;DHT22;5592;49.234;7.268;2023-07-24T10:13:40;23.60;99.90
11079;DHT22;5592;49.234;7.268;2023-07-24T10:16:06;23.40;99.90
11079;DHT22;5592;49.234;7.268;2023-07-24T10:18:34;23.30;99.90
11079;DHT22;5592;49.234;7.268;2023-07-24T10:21:10;23.20;99.90
11079;DHT22;5592;49.234;7.268;2023-07-24T10:23:37;23.30;99.90
11079;DHT22;5592;49.234;7.268;2023-07-24T10:26:04;23.40;99.90
11079;DHT22;5592;49.234;7.268;2023-07-24T10:28:35;23.40;99.90
11079;DHT22;5592;49.234;7.268;2023-07-24T10:31:05;23.50;99.90
11079;DHT22;5592;49.234;7.268;2023-07-24T10:33:35;23.50;99.90
11079;DHT22;5592;49.234;7.268;2023-07-24T10:36:05;23.50;99.90
11079;DHT22;5592;49.234;7.268;2023-07-24T10:38:36;23.50;99.90
11079;DHT22;5592;49.234;7.268;2023-07-24T10:41:04;23.30;99.90
11079;DHT22;5592;49.234;7.268;2023-07-24T10:46:05;23.30;99.90
11079;DHT22;5592;49.234;7.268;2023-07-24T10:48:31;23.30;99.90
11079;DHT22;5592;49.234;7.268;2023-07-24T10:50:56;23.40;99.90
11079;DHT22;5592;49.234;7.268;2023-07-24T10:53:22;23.70;99.90
11079;DHT22;5592;49.234;7.268;2023-07-24T10:55:50;24.60;99.90
11079;DHT22;5592;49.234;7.268;2023-07-24T10:58:16;25.40;99.90
11079;DHT22;5592;49.234;7.268;2023-07-24T11:00:43;25.90;99.90
11079;DHT22;5592;49.234;7.268;2023-07-24T11:03:13;26.30;99.90
11079;DHT22;5592;49.234;7.268;2023-07-24T11:05:40;26.30;99.90
11079;DHT22;5592;49.234;7.268;2023-07-24T11:08:11;26.20;99.90
11079;DHT22;5592;49.234;7.268;2023-07-24T11:10:57;25.40;99.90
11079;DHT22;5592;49.234;7.268;2023-07-24T11:13:25;25.30;99.90
11079;DHT22;5592;49.234;7.268;2023-07-24T11:15:51;25.40;99.90
11079;DHT22;5592;49.234;7.268;2023-07-24T11:18:17;25.60;99.90
11079;DHT22;5592;49.234;7.268;2023-07-24T11:20:54;25.50;99.90
11079;DHT22;5592;49.234;7.268;2023-07-24T11:23:21;25.20;99.90
11079;DHT22;5592;49.234;7.268;2023-07-24T11:25:47;25.10;99.90
11079;DHT22;5592;49.234;7.268;2023-07-24T11:28:15;25.20;99.90
11079;DHT22;5592;49.234;7.268;2023-07-24T11:30:41;25.50;99.90
11079;DHT22;5592;49.234;7.268;2023-07-24T11:33:08;26.00;99.90
11079;DHT22;5592;49.234;7.268;2023-07-24T11:35:34;26.70;99.90
11079;DHT22;5592;49.234;7.268;2023-07-24T11:38:01;27.40;99.90
11079;DHT22;5592;49.234;7.268;2023-07-24T11:40:43;27.70;99.90
11079;DHT22;5592;49.234;7.268;2023-07-24T11:43:20;27.80;99.90
11079;DHT22;5592;49.234;7.268;2023-07-24T11:45:47;27.60;99.90
11079;DHT22;5592;49.234;7.268;2023-07-24T11:48:20;27.60;99.90
11079;DHT22;5592;49.234;7.268;2023-07-24T11:50:47;27.20;99.90
11079;DHT22;5592;49.234;7.268;2023-07-24T11:53:30;25.70;99.90
11079;DHT22;5592;49.234;7.268;2023-07-24T11:55:59;25.00;99.90
11079;DHT22;5592;49.234;7.268;2023-07-24T11:58:27;24.60;99.90
11079;DHT22;5592;49.234;7.268;2023-07-24T12:00:54;24.10;99.90
11079;DHT22;5592;49.234;7.268;2023-07-24T12:03:21;23.70;99.90
11079;DHT22;5592;49.234;7.268;2023-07-24T12:05:47;23.50;99.90
11079;DHT22;5592;49.234;7.268;2023-07-24T12:08:12;23.30;99.90
11079;DHT22;5592;49.234;7.268;2023-07-24T12:10:40;22.70;99.90
11079;DHT22;5592;49.234;7.268;2023-07-24T12:13:06;22.10;99.90
11079;DHT22;5592;49.234;7.268;2023-07-24T12:15:32;22.30;99.90
11079;DHT22;5592;49.234;7.268;2023-07-24T12:17:59;23.00;99.90
11079;DHT22;5592;49.234;7.268;2023-07-24T12:20:24;23.60;99.90
11079;DHT22;5592;49.234;7.268;2023-07-24T12:22:50;23.70;99.90
11079;DHT22;5592;49.234;7.268;2023-07-24T12:25:16;23.80;99.90
11079;DHT22;5592;49.234;7.268;2023-07-24T12:27:41;23.50;99.90
11079;DHT22;5592;49.234;7.268;2023-07-24T12:30:08;23.50;99.90
11079;DHT22;5592;49.234;7.268;2023-07-24T12:32:34;23.50;99.90
11079;DHT22;5592;49.234;7.268;2023-07-24T12:35:00;23.90;99.90
11079;DHT22;5592;49.234;7.268;2023-07-24T12:37:25;24.10;99.90
11079;DHT22;5592;49.234;7.268;2023-07-24T12:39:51;24.40;99.90
11079;DHT22;5592;49.234;7.268;2023-07-24T12:42:16;24.20;99.90
11079;DHT22;5592;49.234;7.268;2023-07-24T12:44:42;23.90;99.90
11079;DHT22;5592;49.234;7.268;2023-07-24T12:47:10;23.50;99.90
11079;DHT22;5592;49.234;7.268;2023-07-24T12:49:35;23.80;99.90
11079;DHT22;5592;49.234;7.268;2023-07-24T12:52:02;24.10;99.90
11079;DHT22;5592;49.234;7.268;2023-07-24T12:54:27;24.20;99.90
11079;DHT22;5592;49.234;7.268;2023-07-24T12:56:53;24.00;99.90
11079;DHT22;5592;49.234;7.268;2023-07-24T12:59:19;23.60;99.90
11079;DHT22;5592;49.234;7.268;2023-07-24T13:01:45;23.60;99.90
11079;DHT22;5592;49.234;7.268;2023-07-24T13:04:11;23.70;99.90
11079;DHT22;5592;49.234;7.268;2023-07-24T13:06:37;24.30;99.90
11079;DHT22;5592;49.234;7.268;2023-07-24T13:09:03;24.70;99.90
11079;DHT22;5592;49.234;7.268;2023-07-24T13:11:29;24.40;99.90
11079;DHT22;5592;49.234;7.268;2023-07-24T13:13:55;23.90;99.90
11079;DHT22;5592;49.234;7.268;2023-07-24T13:16:21;23.90;99.90
11079;DHT22;5592;49.234;7.268;2023-07-24T13:18:47;23.70;99.90
11079;DHT22;5592;49.234;7.268;2023-07-24T13:21:13;23.30;99.90
11079;DHT22;5592;49.234;7.268;2023-07-24T13:23:39;23.00;99.90
11079;DHT22;5592;49.234;7.268;2023-07-24T13:26:05;22.60;99.90
11079;DHT22;5592;49.234;7.268;2023-07-24T13:28:31;22.30;99.90
11079;DHT22;5592;49.234;7.268;2023-07-24T13:30:56;22.00;99.90
11079;DHT22;5592;49.234;7.268;2023-07-24T13:33:22;22.00;99.90
11079;DHT22;5592;49.234;7.268;2023-07-24T13:35:48;22.30;99.90
11079;DHT22;5592;49.234;7.268;2023-07-24T13:38:15;22.60;99.90
11079;DHT22;5592;49.234;7.268;2023-07-24T13:40:41;22.70;99.90
11079;DHT22;5592;49.234;7.268;2023-07-24T13:43:06;23.00;99.90
11079;DHT22;5592;49.234;7.268;2023-07-24T13:45:32;22.80;99.90
11079;DHT22;5592;49.234;7.268;2023-07-24T13:47:58;22.50;99.90
11079;DHT22;5592;49.234;7.268;2023-07-24T13:50:24;22.60;99.90
11079;DHT22;5592;49.234;7.268;2023-07-24T13:52:49;22.70;99.90
11079;DHT22;5592;49.234;7.268;2023-07-24T13:55:15;23.00;99.90
11079;DHT22;5592;49.234;7.268;2023-07-24T13:57:41;23.20;99.90
11079;DHT22;5592;49.234;7.268;2023-07-24T14:00:07;23.30;99.90
11079;DHT22;5592;49.234;7.268;2023-07-24T14:02:32;23.60;99.90
11079;DHT22;5592;49.234;7.268;2023-07-24T14:04:58;23.70;99.90
11079;DHT22;5592;49.234;7.268;2023-07-24T14:07:23;23.80;99.90
11079;DHT22;5592;49.234;7.268;2023-07-24T14:09:49;23.80;99.90
11079;DHT22;5592;49.234;7.268;2023-07-24T14:12:14;23.70;99.90
11079;DHT22;5592;49.234;7.268;2023-07-24T14:14:40;23.90;99.90
11079;DHT22;5592;49.234;7.268;2023-07-24T14:17:05;24.10;99.90
11079;DHT22;5592;49.234;7.268;2023-07-24T14:19:31;23.60;99.90
11079;DHT22;5592;49.234;7.268;2023-07-24T14:21:57;23.60;99.90
11079;DHT22;5592;49.234;7.268;2023-07-24T14:24:22;23.10;99.90
11079;DHT22;5592;49.234;7.268;2023-07-24T14:26:48;22.20;99.90
11079;DHT22;5592;49.234;7.268;2023-07-24T14:29:13;21.10;99.90
11079;DHT22;5592;49.234;7.268;2023-07-24T14:31:42;20.70;99.90
11079;DHT22;5592;49.234;7.268;2023-07-24T14:34:08;20.60;99.90
11079;DHT22;5592;49.234;7.268;2023-07-24T14:36:36;20.60;99.90
11079;DHT22;5592;49.234;7.268;2023-07-24T14:39:03;20.80;99.90
11079;DHT22;5592;49.234;7.268;2023-07-24T14:41:28;20.90;99.90
11079;DHT22;5592;49.234;7.268;2023-07-24T14:43:54;21.00;99.90
11079;DHT22;5592;49.234;7.268;2023-07-24T14:46:20;21.20;99.90
11079;DHT22;5592;49.234;7.268;2023-07-24T14:48:46;21.10;99.90
11079;DHT22;5592;49.234;7.268;2023-07-24T14:51:11;20.90;99.90
11079;DHT22;5592;49.234;7.268;2023-07-24T14:53:37;20.70;99.90
11079;DHT22;5592;49.234;7.268;2023-07-24T14:56:03;20.50;99.90
11079;DHT22;5592;49.234;7.268;2023-07-24T14:58:29;20.40;99.90
11079;DHT22;5592;49.234;7.268;2023-07-24T15:00:54;20.60;99.90
11079;DHT22;5592;49.234;7.268;2023-07-24T15:03:20;20.70;99.90
11079;DHT22;5592;49.234;7.268;2023-07-24T15:05:45;20.80;99.90
11079;DHT22;5592;49.234;7.268;2023-07-24T15:08:11;20.80;99.90
11079;DHT22;5592;49.234;7.268;2023-07-24T15:10:36;20.90;99.90
11079;DHT22;5592;49.234;7.268;2023-07-24T15:13:02;20.70;99.90
11079;DHT22;5592;49.234;7.268;2023-07-24T15:15:27;20.80;99.90
11079;DHT22;5592;49.234;7.268;2023-07-24T15:17:53;20.80;99.90
11079;DHT22;5592;49.234;7.268;2023-07-24T15:20:21;20.70;99.90
11079;DHT22;5592;49.234;7.268;2023-07-24T15:22:47;20.70;99.90
11079;DHT22;5592;49.234;7.268;2023-07-24T15:25:12;20.80;99.90
11079;DHT22;5592;49.234;7.268;2023-07-24T15:27:39;20.70;99.90
11079;DHT22;5592;49.234;7.268;2023-07-24T15:30:05;20.70;99.90
11079;DHT22;5592;49.234;7.268;2023-07-24T15:32:31;20.60;99.90
11079;DHT22;5592;49.234;7.268;2023-07-24T15:34:56;20.50;99.90
11079;DHT22;5592;49.234;7.268;2023-07-24T15:37:22;20.60;99.90
11079;DHT22;5592;49.234;7.268;2023-07-24T15:39:50;20.80;99.90
11079;DHT22;5592;49.234;7.268;2023-07-24T15:42:16;21.00;99.90
11079;DHT22;5592;49.234;7.268;2023-07-24T15:44:41;21.20;99.90